createdAt,value
2023-04-21T00:00:31.596Z,101744.84
2023-04-21T00:02:59.640Z,101735.38
2023-04-21T00:05:27.870Z,101728.56
2023-04-21T00:07:55.859Z,101728.91
2023-04-21T00:10:25.175Z,101726.53
2023-04-21T00:12:53.049Z,101677.78
2023-04-21T00:15:20.900Z,101714.50
2023-04-21T00:17:48.859Z,101720.94
2023-04-21T00:20:16.742Z,101717.69
2023-04-21T00:22:44.681Z,101713.31
2023-04-21T00:25:12.567Z,101701.06
2023-04-21T00:27:41.856Z,101708.31
2023-04-21T00:30:10.770Z,101698.69
2023-04-21T00:32:38.712Z,101703.19
2023-04-21T00:35:07.141Z,101699.75
2023-04-21T00:37:35.118Z,101699.88
2023-04-21T00:40:04.230Z,101685.00
2023-04-21T00:42:32.119Z,101673.81
2023-04-21T00:45:01.351Z,101681.75
2023-04-21T00:47:29.268Z,101678.41
2023-04-21T00:49:57.156Z,101638.53
2023-04-21T00:52:25.051Z,101667.25
2023-04-21T00:54:52.934Z,101660.34
2023-04-21T00:57:20.856Z,101656.75
2023-04-21T00:59:49.820Z,101653.34
2023-04-21T01:02:19.451Z,101639.22
2023-04-21T01:04:47.436Z,101641.16
2023-04-21T01:07:15.342Z,101632.38
2023-04-21T01:09:43.210Z,101639.63
2023-04-21T01:12:11.882Z,101642.28
2023-04-21T01:14:40.437Z,101630.94
2023-04-21T01:17:08.769Z,101632.94
2023-04-21T01:19:40.438Z,101630.28
2023-04-21T01:22:11.234Z,101613.72
2023-04-21T01:24:39.580Z,101619.19
2023-04-21T01:27:10.320Z,101623.63
2023-04-21T01:29:38.383Z,101611.41
2023-04-21T01:32:07.812Z,101615.00
2023-04-21T01:34:35.756Z,101613.31
2023-04-21T01:37:03.713Z,101602.81
2023-04-21T01:39:32.915Z,101606.34
2023-04-21T01:42:00.831Z,101602.88
2023-04-21T01:44:28.723Z,101605.53
2023-04-21T01:46:56.640Z,101601.06
2023-04-21T01:49:24.571Z,101601.13
2023-04-21T01:51:52.509Z,101595.78
2023-04-21T01:54:20.382Z,101594.91
2023-04-21T01:56:49.698Z,101596.72
2023-04-21T01:59:18.178Z,101591.41
2023-04-21T02:01:46.436Z,101594.97
2023-04-21T02:04:14.396Z,101591.41
2023-04-21T02:06:42.433Z,101582.63
2023-04-21T02:09:10.340Z,101585.50
2023-04-21T02:11:38.306Z,101593.59
2023-04-21T02:14:07.892Z,101600.69
2023-04-21T02:16:35.885Z,101609.59
2023-04-21T02:19:04.317Z,101611.31
2023-04-21T02:21:32.413Z,101605.06
2023-04-21T02:24:00.282Z,101611.19
2023-04-21T02:26:28.128Z,101597.84
2023-04-21T02:28:55.984Z,101607.53
2023-04-21T02:31:25.313Z,101616.47
2023-04-21T02:33:54.618Z,101606.91
2023-04-21T02:36:22.481Z,101606.13
2023-04-21T02:38:51.185Z,101601.84
2023-04-21T02:41:19.070Z,101604.63
2023-04-21T02:43:46.963Z,101604.81
2023-04-21T02:46:14.862Z,101606.78
2023-04-21T02:48:44.253Z,101616.59
2023-04-21T02:51:15.632Z,101618.41
2023-04-21T02:53:43.548Z,101610.47
2023-04-21T02:56:11.398Z,101607.81
2023-04-21T02:58:39.322Z,101606.91
2023-04-21T03:01:07.255Z,101598.06
2023-04-21T03:03:36.201Z,101600.78
2023-04-21T03:06:06.198Z,101597.31
2023-04-21T03:08:34.070Z,101591.06
2023-04-21T03:11:02.655Z,101590.97
2023-04-21T03:13:30.604Z,101581.22
2023-04-21T03:15:58.480Z,101580.34
2023-04-21T03:18:26.348Z,101581.22
2023-04-21T03:20:54.474Z,101568.91
2023-04-21T03:23:23.704Z,101565.53
2023-04-21T03:25:51.603Z,101569.19
2023-04-21T03:28:19.506Z,101569.47
2023-04-21T03:30:47.383Z,101561.69
2023-04-21T03:33:15.262Z,101571.50
2023-04-21T03:35:43.170Z,101553.25
2023-04-21T03:38:11.043Z,101560.94
2023-04-21T03:40:40.282Z,101559.94
2023-04-21T03:43:08.188Z,101559.94
2023-04-21T03:45:36.373Z,101563.47
2023-04-21T03:48:04.813Z,101554.69
2023-04-21T03:50:32.738Z,101554.69
2023-04-21T03:53:00.571Z,101549.38
2023-04-21T03:55:28.466Z,101552.91
2023-04-21T03:57:57.807Z,101550.19
2023-04-21T04:00:25.826Z,101541.41
2023-04-21T04:02:53.834Z,101537.03
2023-04-21T04:05:21.794Z,101522.94
2023-04-21T04:07:49.683Z,101514.09
2023-04-21T04:10:17.603Z,101513.31
2023-04-21T04:12:45.505Z,101525.81
2023-04-21T04:15:14.965Z,101522.41
2023-04-21T04:17:42.999Z,101516.47
2023-04-21T04:20:11.014Z,101513.03
2023-04-21T04:22:38.965Z,101513.03
2023-04-21T04:25:07.403Z,101507.72
2023-04-21T04:27:35.443Z,101508.53
2023-04-21T04:30:03.496Z,101499.72
2023-04-21T04:32:33.587Z,101505.78
2023-04-21T04:35:01.522Z,101490.97
2023-04-21T04:37:29.504Z,101500.47
2023-04-21T04:39:57.885Z,101493.44
2023-04-21T04:42:26.319Z,101498.72
2023-04-21T04:44:54.537Z,101488.97
2023-04-21T04:47:22.496Z,101470.69
2023-04-21T04:49:51.796Z,101478.44
2023-04-21T04:52:19.736Z,101474.00
2023-04-21T04:54:47.596Z,101475.81
2023-04-21T04:57:15.747Z,101479.34
2023-04-21T04:59:43.628Z,101479.31
2023-04-21T05:02:11.801Z,101475.75
2023-04-21T05:04:40.384Z,101477.34
2023-04-21T05:07:09.704Z,101475.44
2023-04-21T05:09:37.817Z,101480.69
2023-04-21T05:12:06.340Z,101485.06
2023-04-21T05:14:34.274Z,101470.97
2023-04-21T05:17:02.273Z,101471.72
2023-04-21T05:19:30.195Z,101470.78
2023-04-21T05:22:01.070Z,101458.44
2023-04-21T05:24:30.338Z,101454.91
2023-04-21T05:26:58.178Z,101451.31
2023-04-21T05:29:26.158Z,101450.41
2023-04-21T05:31:54.128Z,101450.38
2023-04-21T05:34:22.181Z,101455.63
2023-04-21T05:36:50.141Z,101448.56
2023-04-21T05:39:18.792Z,101457.25
2023-04-21T05:41:48.037Z,101462.44
2023-04-21T05:44:18.037Z,101455.44
2023-04-21T05:46:46.041Z,101463.31
2023-04-21T05:49:13.931Z,101459.66
2023-04-21T05:51:41.808Z,101460.53
2023-04-21T05:54:09.714Z,101454.28
2023-04-21T05:56:37.612Z,101458.50
2023-04-21T05:59:07.152Z,101453.06
2023-04-21T06:01:35.085Z,101448.19
2023-04-21T06:04:03.286Z,101443.84
2023-04-21T06:06:31.833Z,101442.84
2023-04-21T06:08:59.723Z,101436.19
2023-04-21T06:11:27.619Z,101436.19
2023-04-21T06:13:58.446Z,101435.44
2023-04-21T06:16:27.937Z,101434.50
2023-04-21T06:18:55.867Z,101433.59
2023-04-21T06:21:23.767Z,101437.94
2023-04-21T06:23:51.704Z,101440.63
2023-04-21T06:26:19.690Z,101445.84
2023-04-21T06:28:47.675Z,101445.78
2023-04-21T06:31:16.116Z,101427.47
2023-04-21T06:33:45.438Z,101440.28
2023-04-21T06:36:13.347Z,101435.72
2023-04-21T06:38:43.296Z,101422.31
2023-04-21T06:41:11.217Z,101429.88
2023-04-21T06:43:39.224Z,101428.00
2023-04-21T06:46:07.239Z,101421.75
2023-04-21T06:48:35.293Z,101418.00
2023-04-21T06:51:04.623Z,101411.75
2023-04-21T06:53:32.999Z,101411.69
2023-04-21T06:56:00.984Z,101417.88
2023-04-21T06:58:28.940Z,101398.66
2023-04-21T07:00:57.124Z,101402.56
2023-04-21T07:03:25.245Z,101398.91
2023-04-21T07:05:53.339Z,101395.38
2023-04-21T07:08:22.648Z,101393.50
2023-04-21T07:10:51.357Z,101393.44
2023-04-21T07:13:19.288Z,101392.38
2023-04-21T07:15:47.368Z,101394.06
2023-04-21T07:18:15.600Z,101395.66
2023-04-21T07:20:43.663Z,101401.38
2023-04-21T07:23:11.660Z,101391.09
2023-04-21T07:25:41.397Z,101366.31
2023-04-21T07:28:09.354Z,101370.25
2023-04-21T07:30:39.977Z,101377.03
2023-04-21T07:33:08.518Z,101376.81
2023-04-21T07:35:36.893Z,101369.50
2023-04-21T07:38:04.844Z,101368.47
2023-04-21T07:40:33.884Z,101360.53
2023-04-21T07:43:03.465Z,101358.59
2023-04-21T07:45:31.562Z,101345.28
2023-04-21T07:47:59.985Z,101342.41
2023-04-21T07:50:28.025Z,101353.31
2023-04-21T07:52:56.070Z,101344.59
2023-04-21T07:55:24.032Z,101345.84
2023-04-21T07:57:52.433Z,101341.13
2023-04-21T08:00:22.188Z,101346.81
2023-04-21T08:02:50.497Z,101347.28
2023-04-21T08:05:18.693Z,101343.22
2023-04-21T08:07:46.769Z,101336.59
2023-04-21T08:10:14.889Z,101339.75
2023-04-21T08:12:42.793Z,101341.44
2023-04-21T08:15:12.633Z,101334.19
2023-04-21T08:17:45.527Z,101346.81
2023-04-21T08:20:14.136Z,101342.47
2023-04-21T08:22:46.651Z,101350.28
2023-04-21T08:25:16.078Z,101346.72
2023-04-21T08:27:44.747Z,101333.75
2023-04-21T08:30:15.461Z,101337.72
2023-04-21T08:32:44.851Z,101332.50
2023-04-21T08:35:12.823Z,101334.97
2023-04-21T08:37:40.995Z,101328.00
2023-04-21T08:40:09.874Z,101313.69
2023-04-21T08:42:38.166Z,101315.25
2023-04-21T08:45:07.230Z,101307.50
2023-04-21T08:47:36.080Z,101297.63
2023-04-21T08:50:06.053Z,101291.13
2023-04-21T08:52:34.101Z,101303.75
2023-04-21T08:55:02.069Z,101293.72
2023-04-21T08:57:29.973Z,101293.31
2023-04-21T08:59:57.874Z,101293.78
2023-04-21T09:02:26.408Z,101289.25
2023-04-21T09:04:56.106Z,101296.00
2023-04-21T09:07:36.042Z,101288.63
2023-04-21T09:10:04.149Z,101283.84
2023-04-21T09:12:32.059Z,101287.00
2023-04-21T09:15:01.012Z,101295.50
2023-04-21T09:17:33.495Z,101272.28
2023-04-21T09:20:14.456Z,101282.09
2023-04-21T09:22:43.814Z,101270.81
2023-04-21T09:25:13.851Z,101271.72
2023-04-21T09:27:42.044Z,101253.88
2023-04-21T09:30:10.767Z,101268.59
2023-04-21T09:32:39.238Z,101280.22
2023-04-21T09:35:08.162Z,101263.47
2023-04-21T09:37:36.671Z,101219.25
2023-04-21T09:40:07.044Z,101258.25
2023-04-21T09:42:39.184Z,101268.75
2023-04-21T09:45:32.489Z,101266.19
2023-04-21T09:47:58.601Z,101265.91
2023-04-21T09:51:03.844Z,101272.72
2023-04-21T09:53:16.585Z,101264.16
2023-04-21T09:55:46.290Z,101258.28
2023-04-21T09:58:15.475Z,101260.59
2023-04-21T10:00:43.749Z,101252.91
2023-04-21T10:03:12.772Z,101255.34
2023-04-21T10:05:42.795Z,101248.56
2023-04-21T10:08:12.371Z,101227.03
2023-04-21T10:10:43.087Z,101250.44
2023-04-21T10:13:18.602Z,101233.72
2023-04-21T10:15:46.610Z,101242.13
2023-04-21T10:18:18.645Z,101242.47
2023-04-21T10:20:54.111Z,101227.59
2023-04-21T10:23:31.933Z,101228.31
2023-04-21T10:26:07.915Z,101225.44
2023-04-21T10:28:48.077Z,101207.00
2023-04-21T10:31:20.458Z,101224.47
2023-04-21T10:34:13.803Z,101215.59
2023-04-21T10:36:49.276Z,101214.94
2023-04-21T10:39:26.866Z,101209.34
2023-04-21T10:41:56.703Z,101208.75
2023-04-21T10:44:26.055Z,101207.28
2023-04-21T10:46:54.462Z,101203.88
2023-04-21T10:49:23.397Z,101198.03
2023-04-21T10:52:07.413Z,101191.78
2023-04-21T10:54:42.748Z,101189.34
2023-04-21T10:57:12.331Z,101185.97
2023-04-21T10:59:41.891Z,101181.66
2023-04-21T11:02:10.069Z,101176.34
2023-04-21T11:04:40.507Z,101173.06
2023-04-21T11:07:08.936Z,101161.25
2023-04-21T11:09:37.557Z,101163.72
2023-04-21T11:12:08.120Z,101165.88
2023-04-21T11:14:37.146Z,101155.94
2023-04-21T11:17:06.779Z,101154.94
2023-04-21T11:19:34.736Z,101157.66
2023-04-21T11:22:02.637Z,101151.00
2023-04-21T11:24:30.578Z,101144.97
2023-04-21T11:26:58.457Z,101143.13
2023-04-21T11:29:26.346Z,101153.31
2023-04-21T11:31:54.219Z,101158.22
2023-04-21T11:34:25.114Z,101148.13
2023-04-21T11:36:53.004Z,101145.09
2023-04-21T11:39:22.330Z,101142.88
2023-04-21T11:41:51.191Z,101125.75
2023-04-21T11:44:32.274Z,101129.94
2023-04-21T11:47:00.344Z,101131.13
2023-04-21T11:49:30.602Z,101131.34
2023-04-21T11:51:58.534Z,101125.34
2023-04-21T11:54:26.466Z,101125.66
2023-04-21T11:56:55.214Z,101118.91
2023-04-21T11:59:25.676Z,101119.66
2023-04-21T12:01:55.462Z,101118.25
2023-04-21T12:04:24.327Z,101114.03
2023-04-21T12:06:59.055Z,101127.47
2023-04-21T12:09:27.128Z,101120.25
2023-04-21T12:11:56.611Z,101123.19
2023-04-21T12:14:25.210Z,101120.09
2023-04-21T12:16:55.306Z,101116.59
2023-04-21T12:19:23.722Z,101117.13
2023-04-21T12:21:56.258Z,101114.31
2023-04-21T12:24:26.097Z,101113.25
2023-04-21T12:26:53.989Z,101111.88
2023-04-21T12:29:24.965Z,101108.50
2023-04-21T12:31:53.292Z,101091.53
2023-04-21T12:34:21.240Z,101098.47
2023-04-21T12:36:49.118Z,101090.34
2023-04-21T12:39:17.429Z,101090.34
2023-04-21T12:41:47.488Z,101092.63
2023-04-21T12:44:16.073Z,101086.38
2023-04-21T12:46:44.066Z,101084.03
2023-04-21T12:49:11.934Z,101086.97
2023-04-21T12:51:39.840Z,101089.34
2023-04-21T12:54:08.970Z,101078.56
2023-04-21T12:56:36.829Z,101073.66
2023-04-21T12:59:06.126Z,101070.16
2023-04-21T13:01:34.128Z,101066.72
2023-04-21T13:04:02.449Z,101061.81
2023-04-21T13:06:31.059Z,101056.91
2023-04-21T13:08:58.929Z,101063.53
2023-04-21T13:11:26.902Z,101058.03
2023-04-21T13:13:54.833Z,101053.22
2023-04-21T13:16:24.067Z,101059.47
2023-04-21T13:18:51.926Z,101036.53
2023-04-21T13:21:19.812Z,101058.25
2023-04-21T13:23:47.837Z,101048.94
2023-04-21T13:26:15.982Z,101049.84
2023-04-21T13:28:43.967Z,101053.34
2023-04-21T13:31:11.853Z,101051.16
2023-04-21T13:33:41.185Z,101056.09
2023-04-21T13:36:12.709Z,101042.41
2023-04-21T13:38:41.422Z,101044.75
2023-04-21T13:41:09.335Z,101039.59
2023-04-21T13:43:37.488Z,101033.31
2023-04-21T13:46:05.508Z,101031.56
2023-04-21T13:48:33.386Z,101027.00
2023-04-21T13:51:02.693Z,101018.03
2023-04-21T13:53:31.300Z,101027.16
2023-04-21T13:55:59.471Z,101023.63
2023-04-21T13:58:27.830Z,101028.03
2023-04-21T14:00:55.760Z,101017.19
2023-04-21T14:03:24.095Z,101023.53
2023-04-21T14:05:52.306Z,101015.38
2023-04-21T14:08:22.114Z,101018.06
2023-04-21T14:10:50.139Z,101013.84
2023-04-21T14:15:51.841Z,101015.38
2023-04-21T14:18:20.006Z,101019.31
2023-04-21T14:20:48.163Z,100996.41
2023-04-21T14:23:16.637Z,101005.13
2023-04-21T14:25:46.046Z,101006.19
2023-04-21T14:28:13.999Z,101008.00
2023-04-21T14:30:43.022Z,100999.19
2023-04-21T14:33:11.039Z,100995.94
2023-04-21T14:35:39.068Z,100990.78
2023-04-21T14:38:07.685Z,100995.84
2023-04-21T14:40:35.566Z,100989.31
2023-04-21T14:43:05.112Z,100995.84
2023-04-21T14:45:33.086Z,100988.19
2023-04-21T14:48:01.277Z,100982.56
2023-04-21T14:50:29.332Z,100972.19
2023-04-21T14:52:57.372Z,100977.09
2023-04-21T14:55:25.447Z,100975.66
2023-04-21T14:57:53.691Z,100957.75
2023-04-21T15:00:24.246Z,100973.38
2023-04-21T15:02:52.926Z,100959.00
2023-04-21T15:05:21.552Z,100966.53
2023-04-21T15:07:49.876Z,100965.41
2023-04-21T15:10:17.965Z,100959.16
2023-04-21T15:12:45.968Z,100946.59
2023-04-21T15:15:14.528Z,100958.78
2023-04-21T15:17:43.928Z,100948.91
2023-04-21T15:20:12.560Z,100949.72
2023-04-21T15:22:40.502Z,100949.16
2023-04-21T15:25:08.904Z,100945.91
2023-04-21T15:27:36.852Z,100945.22
2023-04-21T15:30:05.210Z,100940.38
2023-04-21T15:32:33.225Z,100951.72
2023-04-21T15:35:02.632Z,100932.22
2023-04-21T15:37:30.518Z,100947.84
2023-04-21T15:39:58.673Z,100950.56
2023-04-21T15:42:26.537Z,100948.16
2023-04-21T15:44:55.891Z,100950.75
2023-04-21T15:47:24.100Z,100946.72
2023-04-21T15:49:52.250Z,100944.47
2023-04-21T15:52:21.704Z,100937.75
2023-04-21T15:54:49.622Z,100934.66
2023-04-21T15:57:18.145Z,100929.06
2023-04-21T15:59:46.088Z,100922.69
2023-04-21T16:02:14.720Z,100921.66
2023-04-21T16:04:43.471Z,100918.22
2023-04-21T16:07:12.145Z,100914.47
2023-04-21T16:09:41.826Z,100917.94
2023-04-21T16:12:10.530Z,100915.34
2023-04-21T16:14:53.525Z,100922.75
2023-04-21T16:17:26.626Z,100909.97
2023-04-21T16:19:54.859Z,100912.25
2023-04-21T16:22:22.809Z,100906.38
2023-04-21T16:24:53.264Z,100910.72
2023-04-21T16:27:21.477Z,100903.13
2023-04-21T16:29:50.277Z,100915.59
2023-04-21T16:32:18.319Z,100920.69
2023-04-21T16:34:46.548Z,100920.31
2023-04-21T16:37:14.591Z,100919.91
2023-04-21T16:39:42.751Z,100924.84
2023-04-21T16:42:12.066Z,100931.16
2023-04-21T16:44:40.317Z,100930.47
2023-04-21T16:47:08.872Z,100927.22
2023-04-21T16:49:37.051Z,100919.38
2023-04-21T16:52:04.989Z,100929.81
2023-04-21T16:54:32.999Z,100940.59
2023-04-21T16:57:02.115Z,100941.91
2023-04-21T16:59:33.018Z,100943.31
2023-04-21T17:02:01.270Z,100946.31
2023-04-21T17:04:29.303Z,100944.09
2023-04-21T17:06:58.499Z,100927.94
2023-04-21T17:09:26.610Z,100945.97
2023-04-21T17:11:54.641Z,100950.72
2023-04-21T17:14:22.594Z,100953.81
2023-04-21T17:16:52.076Z,100955.28
2023-04-21T17:19:20.566Z,100904.81
2023-04-21T17:21:49.275Z,100952.59
2023-04-21T17:24:17.208Z,100954.13
2023-04-21T17:26:45.108Z,100952.03
2023-04-21T17:29:12.971Z,100956.84
2023-04-21T17:31:41.358Z,100964.31
2023-04-21T17:34:10.731Z,100953.34
2023-04-21T17:36:40.176Z,100955.13
2023-04-21T17:39:08.383Z,100960.22
2023-04-21T17:41:36.302Z,100954.66
2023-04-21T17:44:04.396Z,100955.00
2023-04-21T17:46:32.321Z,100956.16
2023-04-21T17:49:00.611Z,100945.88
2023-04-21T17:51:29.916Z,100954.50
2023-04-21T17:53:57.807Z,100949.00
2023-04-21T17:56:25.731Z,100948.94
2023-04-21T17:58:53.600Z,100942.81
2023-04-21T18:01:21.616Z,100950.53
2023-04-21T18:03:49.594Z,100945.25
2023-04-21T18:06:17.574Z,100940.78
2023-04-21T18:08:46.818Z,100943.59
2023-04-21T18:11:14.723Z,100934.56
2023-04-21T18:13:42.662Z,100952.47
2023-04-21T18:16:10.583Z,100944.59
2023-04-21T18:18:38.712Z,100950.66
2023-04-21T18:21:06.679Z,100942.75
2023-04-21T18:23:34.790Z,100938.25
2023-04-21T18:26:04.099Z,100938.97
2023-04-21T18:28:32.031Z,100941.78
2023-04-21T18:31:00.763Z,100936.31
2023-04-21T18:33:28.859Z,100939.84
2023-04-21T18:35:56.776Z,100936.31
2023-04-21T18:38:24.684Z,100929.09
2023-04-21T18:40:52.625Z,100919.34
2023-04-21T18:43:22.343Z,100931.50
2023-04-21T18:45:50.230Z,100932.63
2023-04-21T18:48:18.130Z,100938.03
2023-04-21T18:50:46.861Z,100936.38
2023-04-21T18:53:14.812Z,100933.88
2023-04-21T18:55:42.672Z,100935.66
2023-04-21T18:58:10.890Z,100934.00
2023-04-21T19:00:40.414Z,100930.66
2023-04-21T19:03:08.486Z,100938.09
2023-04-21T19:05:37.083Z,100935.66
2023-04-21T19:08:05.429Z,100930.72
2023-04-21T19:10:34.347Z,100939.81
2023-04-21T19:13:02.282Z,100932.16
2023-04-21T19:15:30.630Z,100933.44
2023-04-21T19:18:00.055Z,100927.50
2023-04-21T19:20:28.110Z,100932.94
2023-04-21T19:22:56.054Z,100932.22
2023-04-21T19:25:23.986Z,100932.22
2023-04-21T19:27:51.946Z,100933.94
2023-04-21T19:30:20.013Z,100926.03
2023-04-21T19:32:47.971Z,100934.50
2023-04-21T19:35:17.666Z,100936.16
2023-04-21T19:37:45.599Z,100929.81
2023-04-21T19:40:13.609Z,100932.34
2023-04-21T19:42:41.953Z,100936.59
2023-04-21T19:45:11.089Z,100930.38
2023-04-21T19:47:39.029Z,100926.06
2023-04-21T19:50:08.339Z,100928.03
2023-04-21T19:52:37.611Z,100930.25
2023-04-21T19:55:06.035Z,100916.59
2023-04-21T19:57:34.025Z,100924.06
2023-04-21T20:00:01.924Z,100914.94
2023-04-21T20:02:29.962Z,100916.31
2023-04-21T20:04:58.496Z,100910.63
2023-04-21T20:07:26.656Z,100910.25
2023-04-21T20:09:56.051Z,100858.84
2023-04-21T20:12:23.970Z,100908.31
2023-04-21T20:14:53.712Z,100901.59
2023-04-21T20:17:21.667Z,100913.34
2023-04-21T20:19:49.588Z,100909.22
2023-04-21T20:22:17.508Z,100908.69
2023-04-21T20:24:45.879Z,100906.09
2023-04-21T20:27:15.129Z,100906.44
2023-04-21T20:29:43.216Z,100903.25
2023-04-21T20:32:11.870Z,100904.53
2023-04-21T20:34:40.893Z,100902.97
2023-04-21T20:37:10.711Z,100900.72
2023-04-21T20:39:39.510Z,100873.56
2023-04-21T20:42:13.126Z,100898.69
2023-04-21T20:44:43.445Z,100896.41
2023-04-21T20:47:11.596Z,100895.09
2023-04-21T20:49:40.151Z,100887.44
2023-04-21T20:52:08.260Z,100886.03
2023-04-21T20:54:36.459Z,100864.41
2023-04-21T20:57:04.314Z,100883.09
2023-04-21T20:59:32.230Z,100882.50
2023-04-21T21:02:01.706Z,100880.03
2023-04-21T21:04:29.709Z,100880.28
2023-04-21T21:06:57.576Z,100875.28
2023-04-21T21:09:25.855Z,100875.53
2023-04-21T21:11:53.870Z,100876.69
2023-04-21T21:14:21.835Z,100870.75
2023-04-21T21:16:49.853Z,100867.41
2023-04-21T21:19:19.224Z,100865.88
2023-04-21T21:21:47.159Z,100869.59
2023-04-21T21:24:15.039Z,100859.38
2023-04-21T21:26:42.990Z,100833.50
2023-04-21T21:29:10.874Z,100869.03
2023-04-21T21:31:38.743Z,100862.91
2023-04-21T21:34:06.827Z,100868.31
2023-04-21T21:36:36.162Z,100867.47
2023-04-21T21:39:04.091Z,100864.00
2023-04-21T21:41:31.957Z,100866.72
2023-04-21T21:43:59.860Z,100869.44
2023-04-21T21:46:27.725Z,100863.31
2023-04-21T21:48:55.615Z,100866.03
2023-04-21T21:51:23.547Z,100866.97
2023-04-21T21:53:52.779Z,100864.34
2023-04-21T21:56:21.383Z,100864.41
2023-04-21T21:58:49.356Z,100867.94
2023-04-21T22:01:18.277Z,100848.81
2023-04-21T22:03:47.276Z,100854.22
2023-04-21T22:06:17.209Z,100853.34
2023-04-21T22:08:45.781Z,100865.78
2023-04-21T22:11:15.113Z,100857.03
2023-04-21T22:13:43.190Z,100858.06
2023-04-21T22:16:11.081Z,100859.03
2023-04-21T22:18:39.129Z,100860.09
2023-04-21T22:21:07.165Z,100856.72
2023-04-21T22:23:35.105Z,100859.44
2023-04-21T22:26:02.947Z,100853.44
2023-04-21T22:28:32.270Z,100857.06
2023-04-21T22:31:00.184Z,100859.78
2023-04-21T22:33:28.075Z,100861.66
2023-04-21T22:35:56.255Z,100858.19
2023-04-21T22:38:24.124Z,100868.00
2023-04-21T22:40:52.018Z,100856.56
2023-04-21T22:43:19.899Z,100859.31
2023-04-21T22:45:49.173Z,100852.38
2023-04-21T22:48:17.097Z,100844.50
2023-04-21T22:50:44.992Z,100843.81
2023-04-21T22:53:13.411Z,100843.75
2023-04-21T22:55:41.355Z,100840.28
2023-04-21T22:58:17.035Z,100831.66
2023-04-21T23:00:45.011Z,100836.66
2023-04-21T23:03:14.556Z,100830.44
2023-04-21T23:05:42.547Z,100826.06
2023-04-21T23:08:10.472Z,100821.69
2023-04-21T23:10:38.442Z,100815.50
2023-04-21T23:13:07.030Z,100816.38
2023-04-21T23:15:34.975Z,100814.63
2023-04-21T23:18:02.972Z,100815.75
2023-04-21T23:20:32.627Z,100820.09
2023-04-21T23:23:00.582Z,100815.94
2023-04-21T23:25:28.473Z,100770.88
2023-04-21T23:27:56.539Z,100806.53
2023-04-21T23:30:24.400Z,100803.22
2023-04-21T23:32:52.327Z,100764.34
2023-04-21T23:35:20.322Z,100807.81
2023-04-21T23:37:49.881Z,100808.97
2023-04-21T23:40:17.841Z,100805.66
2023-04-21T23:42:47.427Z,100809.31
2023-04-21T23:45:15.799Z,100801.72
2023-04-21T23:47:45.555Z,100800.03
2023-04-21T23:50:13.916Z,100804.31
2023-04-21T23:52:42.178Z,100791.19
2023-04-21T23:55:12.228Z,100799.81
2023-04-21T23:57:40.410Z,100791.84
